Time;durP1;ratioP1;P1;durP2;ratioP2;P2;SDS_P1;SDS_P2;PMS_P1;PMS_P2;Temp;Humidity;BMP_temperature;BMP_pressure;BME280_temperature;BME280_humidity;BME280_pressure;Samples;Min_cycle;Max_cycle;Signal;HPM_P1;HPM_P2
2023/12/13 00:01:38;;;;;;;8.90;6.77;;;;;;;1.84;100.00;96556.16;6252761;28;20258;-53
2023/12/13 00:04:41;;;;;;;7.83;6.63;;;;;;;1.87;100.00;96550.47;6251672;28;20200;-55
2023/12/13 00:07:43;;;;;;;7.37;6.23;;;;;;;1.78;100.00;96540.25;6251774;28;20216;-53
2023/12/13 00:10:45;;;;;;;7.73;6.27;;;;;;;1.86;100.00;96547.03;6249682;28;20336;-54
2023/12/13 00:13:47;;;;;;;8.77;6.30;;;;;;;1.85;100.00;96544.63;6244838;28;20192;-53
2023/12/13 00:16:50;;;;;;;7.10;5.93;;;;;;;1.88;100.00;96549.47;6246420;28;20190;-54
2023/12/13 00:19:52;;;;;;;14.07;7.93;;;;;;;1.90;100.00;96545.59;6245635;28;20768;-55
2023/12/13 00:22:55;;;;;;;8.17;6.40;;;;;;;1.93;100.00;96541.75;6245046;28;20202;-55
2023/12/13 00:25:57;;;;;;;7.80;6.70;;;;;;;1.94;100.00;96544.16;6245753;28;20289;-54
2023/12/13 00:28:59;;;;;;;9.87;7.13;;;;;;;1.93;100.00;96549.63;6251841;28;20196;-53
2023/12/13 00:32:01;;;;;;;10.97;7.20;;;;;;;1.94;100.00;96541.53;6253300;28;20658;-54
2023/12/13 00:35:04;;;;;;;9.20;6.90;;;;;;;1.94;100.00;96530.22;6254250;28;20206;-56
2023/12/13 00:38:06;;;;;;;12.60;6.60;;;;;;;1.69;100.00;96496.91;6254566;28;20205;-54
2023/12/13 00:41:08;;;;;;;9.13;6.87;;;;;;;1.88;100.00;96529.25;6258124;28;20337;-54
2023/12/13 00:44:10;;;;;;;9.63;7.50;;;;;;;1.91;100.00;96523.56;6261957;28;20196;-55
2023/12/13 00:47:12;;;;;;;13.17;7.50;;;;;;;1.92;100.00;96519.94;6263392;28;20220;-53
2023/12/13 00:50:14;;;;;;;11.57;7.73;;;;;;;1.96;100.00;96530.78;6262341;28;20629;-56
2023/12/13 00:53:16;;;;;;;7.37;6.50;;;;;;;1.96;100.00;96518.47;6256922;28;20205;-56
2023/12/13 00:56:18;;;;;;;8.97;6.77;;;;;;;1.94;100.00;96530.22;6244485;28;20618;-57
2023/12/13 00:59:20;;;;;;;10.70;7.37;;;;;;;1.93;100.00;96518.91;6244577;28;20585;-56
2023/12/13 01:02:22;;;;;;;8.00;6.33;;;;;;;1.96;100.00;96515.84;6249141;28;20208;-52
2023/12/13 01:05:25;;;;;;;7.73;6.37;;;;;;;1.95;100.00;96510.81;6235525;28;20258;-55
2023/12/13 01:08:27;;;;;;;12.00;6.67;;;;;;;1.94;100.00;96504.75;6252652;28;20194;-52
2023/12/13 01:11:29;;;;;;;10.50;7.37;;;;;;;1.95;100.00;96516.06;6245039;28;20776;-54
2023/12/13 01:14:33;;;;;;;12.10;7.10;;;;;;;1.93;100.00;96515.50;6256138;28;20200;-54
2023/12/13 01:17:35;;;;;;;9.80;7.07;;;;;;;1.95;100.00;96508.19;6239624;28;20191;-53
2023/12/13 01:20:37;;;;;;;8.73;7.20;;;;;;;1.97;100.00;96503.50;6258935;28;20333;-55
2023/12/13 01:23:39;;;;;;;11.63;7.07;;;;;;;1.97;100.00;96504.34;6251408;28;20192;-55
2023/12/13 01:26:41;;;;;;;11.23;7.27;;;;;;;1.95;100.00;96505.56;6247103;28;20673;-55
2023/12/13 01:29:43;;;;;;;8.80;6.30;;;;;;;1.97;100.00;96501.72;6248949;28;20323;-55
2023/12/13 01:32:45;;;;;;;14.57;7.80;;;;;;;2.01;100.00;96496.81;6247374;28;20607;-55
2023/12/13 01:35:48;;;;;;;11.17;7.30;;;;;;;2.05;100.00;96495.38;6250258;28;20192;-56
2023/12/13 01:38:50;;;;;;;10.97;7.37;;;;;;;2.03;100.00;96479.81;6248834;28;20187;-55
2023/12/13 01:41:52;;;;;;;10.37;7.97;;;;;;;2.01;100.00;96476.59;6248062;28;20734;-53
2023/12/13 01:44:54;;;;;;;9.27;7.47;;;;;;;1.98;100.00;96471.00;6249265;28;20193;-54
2023/12/13 01:47:56;;;;;;;11.57;7.70;;;;;;;1.98;100.00;96465.75;6251649;28;20217;-55
2023/12/13 01:50:58;;;;;;;7.93;6.90;;;;;;;1.99;100.00;96462.09;6255011;28;20203;-53
2023/12/13 01:54:02;;;;;;;9.57;6.80;;;;;;;2.02;100.00;96461.63;6257444;28;20200;-53
2023/12/13 01:57:08;;;;;;;11.27;7.87;;;;;;;2.00;100.00;96456.63;6256951;28;20198;-51
2023/12/13 02:00:11;;;;;;;15.77;9.53;;;;;;;2.00;100.00;96445.31;6255503;28;20571;-55
2023/12/13 02:03:14;;;;;;;9.67;7.63;;;;;;;2.08;100.00;96452.91;6257302;28;20215;-56
2023/12/13 02:06:16;;;;;;;11.07;7.27;;;;;;;2.06;100.00;96447.06;6254203;28;20582;-54
2023/12/13 02:09:18;;;;;;;11.13;7.13;;;;;;;2.02;100.00;96459.00;6246778;28;20697;-56
2023/12/13 02:12:20;;;;;;;10.17;8.13;;;;;;;1.93;100.00;96447.22;6255160;28;20201;-52
2023/12/13 02:15:23;;;;;;;10.20;7.90;;;;;;;2.03;100.00;96455.38;6253926;28;20194;-55
2023/12/13 02:18:27;;;;;;;9.60;7.27;;;;;;;2.02;100.00;96448.50;6254109;28;20217;-56
2023/12/13 02:21:30;;;;;;;14.50;8.47;;;;;;;1.88;100.00;96433.94;6250902;28;20216;-55
2023/12/13 02:24:33;;;;;;;10.63;7.00;;;;;;;1.95;100.00;96448.59;6250643;28;20279;-58
2023/12/13 02:27:36;;;;;;;9.60;6.63;;;;;;;1.98;100.00;96447.34;6255341;28;20882;-53
2023/12/13 02:30:40;;;;;;;10.43;6.73;;;;;;;2.01;100.00;96454.78;6250508;28;20272;-55
2023/12/13 02:33:44;;;;;;;7.97;6.30;;;;;;;1.99;100.00;96443.72;6248071;28;20234;-56
2023/12/13 02:36:48;;;;;;;9.17;6.33;;;;;;;1.98;100.00;96440.28;6253090;28;20192;-56
2023/12/13 02:39:50;;;;;;;9.03;6.77;;;;;;;1.98;100.00;96448.16;6259262;28;20194;-54
2023/12/13 02:42:52;;;;;;;9.77;7.57;;;;;;;1.98;100.00;96442.09;6258467;28;20208;-55
2023/12/13 02:45:54;;;;;;;10.23;7.53;;;;;;;1.96;100.00;96437.06;6266738;28;20667;-52
2023/12/13 02:48:59;;;;;;;10.90;7.97;;;;;;;1.97;100.00;96433.44;6264619;28;20233;-54
2023/12/13 02:52:01;;;;;;;8.67;7.03;;;;;;;2.03;100.00;96429.13;6260526;28;20713;-53
2023/12/13 02:55:04;;;;;;;9.17;6.90;;;;;;;1.98;100.00;96428.97;6249168;28;20213;-56
2023/12/13 02:58:06;;;;;;;10.33;7.53;;;;;;;1.93;100.00;96427.00;6250262;28;20205;-55
2023/12/13 03:01:08;;;;;;;11.30;8.67;;;;;;;1.93;100.00;96431.44;6251460;28;20199;-56
2023/12/13 03:04:11;;;;;;;14.17;8.53;;;;;;;1.92;100.00;96420.16;6253316;28;20714;-55
2023/12/13 03:07:13;;;;;;;12.43;9.20;;;;;;;1.97;100.00;96422.09;6255676;28;20233;-55
2023/12/13 03:10:15;;;;;;;9.00;7.77;;;;;;;1.98;100.00;96419.28;6255783;28;20552;-55
2023/12/13 03:13:18;;;;;;;11.73;7.97;;;;;;;1.93;100.00;96413.06;6256140;28;20202;-54
2023/12/13 03:16:20;;;;;;;12.80;9.63;;;;;;;1.96;100.00;96412.63;6259421;28;20723;-54
2023/12/13 03:19:25;;;;;;;11.53;8.07;;;;;;;1.94;100.00;96415.47;6257637;28;20279;-55
2023/12/13 03:22:27;;;;;;;14.90;9.77;;;;;;;1.90;100.00;96426.63;6253125;28;20194;-52
2023/12/13 03:25:29;;;;;;;10.80;7.77;;;;;;;1.91;100.00;96422.97;6246302;28;20203;-53
2023/12/13 03:28:31;;;;;;;11.27;8.40;;;;;;;1.90;100.00;96414.28;6258638;28;20284;-56
2023/12/13 03:31:34;;;;;;;9.53;7.17;;;;;;;1.91;100.00;96407.22;6254055;28;20190;-56
2023/12/13 03:34:36;;;;;;;13.63;9.23;;;;;;;1.92;100.00;96412.28;6246595;28;20622;-50
2023/12/13 03:37:38;;;;;;;10.43;7.50;;;;;;;1.72;100.00;96383.56;6249559;28;20202;-56
2023/12/13 03:40:40;;;;;;;12.03;9.63;;;;;;;1.94;100.00;96409.41;6254102;28;20213;-55
2023/12/13 03:43:42;;;;;;;11.30;7.80;;;;;;;1.90;100.00;96395.13;6250361;28;20643;-52
2023/12/13 03:46:44;;;;;;;12.03;9.43;;;;;;;1.98;100.00;96408.75;6242360;28;20210;-55
2023/12/13 03:49:46;;;;;;;13.47;8.60;;;;;;;1.98;100.00;96402.72;6252838;28;20202;-57
2023/12/13 03:52:49;;;;;;;12.33;8.67;;;;;;;1.96;100.00;96399.47;6261833;28;20213;-55
2023/12/13 03:55:51;;;;;;;14.90;9.77;;;;;;;1.95;100.00;96403.94;6259165;28;20197;-53
2023/12/13 03:58:53;;;;;;;11.07;8.07;;;;;;;1.98;100.00;96400.09;6253119;28;20202;-54
2023/12/13 04:01:55;;;;;;;14.37;10.40;;;;;;;1.98;100.00;96400.88;6253751;28;20845;-56
2023/12/13 04:04:57;;;;;;;14.17;10.10;;;;;;;1.94;100.00;96380.53;6253331;28;20774;-55
2023/12/13 04:08:00;;;;;;;13.63;10.03;;;;;;;1.98;100.00;96386.94;6257606;28;20701;-52
2023/12/13 04:11:02;;;;;;;13.63;9.73;;;;;;;1.96;100.00;96388.97;6248017;28;20574;-53
2023/12/13 04:14:04;;;;;;;14.97;10.37;;;;;;;2.00;100.00;96384.91;6249211;28;20194;-55
2023/12/13 04:17:06;;;;;;;12.27;9.50;;;;;;;2.09;100.00;96388.03;6245969;28;20769;-56
2023/12/13 04:20:09;;;;;;;16.23;10.63;;;;;;;2.06;100.00;96384.81;6247767;28;20197;-56
2023/12/13 04:23:11;;;;;;;13.97;8.67;;;;;;;2.03;100.00;96376.59;6247037;28;20206;-57
2023/12/13 04:26:13;;;;;;;13.57;9.50;;;;;;;2.06;100.00;96384.00;6250591;28;20217;-56
2023/12/13 04:29:15;;;;;;;12.33;8.53;;;;;;;2.04;100.00;96371.13;6246776;28;20190;-57
2023/12/13 04:32:17;;;;;;;11.63;8.07;;;;;;;2.05;100.00;96369.28;6246810;28;20620;-55
2023/12/13 04:35:19;;;;;;;13.67;8.90;;;;;;;2.04;100.00;96371.13;6245734;28;20554;-55
2023/12/13 04:38:21;;;;;;;11.83;8.27;;;;;;;2.03;100.00;96366.09;6246141;28;20219;-56
2023/12/13 04:41:23;;;;;;;13.57;9.10;;;;;;;1.97;100.00;96356.44;6248219;28;20194;-55
2023/12/13 04:44:27;;;;;;;11.57;8.30;;;;;;;2.02;100.00;96354.78;6245259;28;20206;-54
2023/12/13 04:47:29;;;;;;;13.73;8.43;;;;;;;2.02;100.00;96354.78;6251436;28;20203;-54
2023/12/13 04:50:32;;;;;;;12.97;8.20;;;;;;;2.06;100.00;96349.88;6259558;28;20203;-53
2023/12/13 04:53:34;;;;;;;13.23;8.60;;;;;;;1.81;100.00;96319.25;6251609;28;20629;-55
2023/12/13 04:56:37;;;;;;;11.80;8.57;;;;;;;1.89;100.00;96322.63;6250958;28;20271;-55
2023/12/13 04:59:39;;;;;;;11.97;8.17;;;;;;;2.05;100.00;96350.91;6248804;28;20800;-54
2023/12/13 05:02:41;;;;;;;10.80;7.83;;;;;;;2.02;100.00;96336.41;6252188;28;20671;-53
2023/12/13 05:05:43;;;;;;;10.27;7.40;;;;;;;2.05;100.00;96343.03;6253058;28;20214;-54
2023/12/13 05:08:46;;;;;;;9.77;7.43;;;;;;;2.01;100.00;96342.66;6252470;28;20316;-55
2023/12/13 05:11:48;;;;;;;12.77;7.27;;;;;;;1.82;100.00;96322.66;6253620;28;20292;-55
2023/12/13 05:14:50;;;;;;;9.27;6.97;;;;;;;2.01;100.00;96336.59;6241718;28;20628;-53
2023/12/13 05:17:52;;;;;;;10.60;6.33;;;;;;;2.00;100.00;96327.91;6255545;28;20651;-52
2023/12/13 05:20:55;;;;;;;9.70;6.37;;;;;;;2.01;100.00;96331.34;6258993;28;20201;-55
2023/12/13 05:23:57;;;;;;;10.40;5.90;;;;;;;1.99;100.00;96339.44;6256801;28;20225;-52
2023/12/13 05:27:00;;;;;;;7.90;6.30;;;;;;;1.81;100.00;96300.06;6258445;28;20697;-50
2023/12/13 05:30:02;;;;;;;10.63;6.20;;;;;;;2.01;100.00;96323.47;6258098;28;20193;-56
2023/12/13 05:33:07;;;;;;;8.30;6.40;;;;;;;2.02;100.00;96320.63;6247201;28;20764;-55
2023/12/13 05:36:09;;;;;;;10.40;6.03;;;;;;;1.81;100.00;96292.19;6248602;28;20244;-56
2023/12/13 05:39:11;;;;;;;8.47;5.50;;;;;;;1.98;100.00;96322.09;6248978;28;20570;-54
2023/12/13 05:42:13;;;;;;;6.37;5.17;;;;;;;1.94;100.00;96335.88;6248021;28;20197;-54
2023/12/13 05:45:15;;;;;;;7.30;5.53;;;;;;;1.64;100.00;96299.88;6249363;28;20198;-54
2023/12/13 05:48:18;;;;;;;6.93;4.97;;;;;;;1.82;100.00;96335.81;6250868;28;20208;-55
2023/12/13 05:51:21;;;;;;;7.73;5.47;;;;;;;1.68;100.00;96327.28;6251454;28;20202;-54
2023/12/13 05:54:23;;;;;;;6.87;4.50;;;;;;;1.80;100.00;96340.47;6254953;28;20195;-56
2023/12/13 05:57:25;;;;;;;6.23;4.80;;;;;;;1.80;100.00;96343.09;6251705;28;20198;-52
2023/12/13 06:00:27;;;;;;;19.37;6.57;;;;;;;1.80;100.00;96341.28;6252919;28;20191;-55
2023/12/13 06:03:29;;;;;;;8.33;5.60;;;;;;;1.81;100.00;96344.72;6247134;28;20231;-56
2023/12/13 06:06:32;;;;;;;6.50;5.03;;;;;;;1.83;100.00;96362.88;6252938;28;20197;-52
2023/12/13 06:09:35;;;;;;;8.30;6.00;;;;;;;1.86;100.00;96354.56;6253172;28;20212;-54
2023/12/13 06:12:37;;;;;;;6.47;5.10;;;;;;;1.89;100.00;96352.31;6249214;28;20229;-50
2023/12/13 06:15:39;;;;;;;6.93;5.40;;;;;;;1.90;100.00;96355.72;6242339;28;20251;-54
2023/12/13 06:18:41;;;;;;;11.60;6.70;;;;;;;1.89;100.00;96348.88;6247919;28;20193;-54
2023/12/13 06:21:44;;;;;;;12.30;8.20;;;;;;;1.92;100.00;96351.88;6245817;28;20201;-56
2023/12/13 06:24:46;;;;;;;16.17;10.77;;;;;;;2.01;100.00;96350.53;6248160;28;20193;-54
2023/12/13 06:27:49;;;;;;;16.27;9.77;;;;;;;1.98;100.00;96353.63;6246495;28;20214;-56
2023/12/13 06:30:51;;;;;;;14.80;8.83;;;;;;;2.02;100.00;96348.69;6248920;28;20563;-56
2023/12/13 06:33:53;;;;;;;24.67;12.30;;;;;;;2.02;100.00;96338.19;6251094;28;20368;-53
2023/12/13 06:36:55;;;;;;;31.67;15.23;;;;;;;2.08;100.00;96337.34;6250645;28;20202;-53
2023/12/13 06:39:57;;;;;;;19.80;12.63;;;;;;;1.82;100.00;96285.91;6251928;28;20267;-56
2023/12/13 06:42:59;;;;;;;26.60;15.30;;;;;;;2.15;100.00;96332.00;6254558;28;20196;-56
2023/12/13 06:46:02;;;;;;;20.07;11.53;;;;;;;2.11;100.00;96328.19;6256290;28;20677;-56
2023/12/13 06:49:04;;;;;;;28.57;15.67;;;;;;;2.04;100.00;96315.16;6250515;28;20603;-54
2023/12/13 06:52:06;;;;;;;19.80;12.53;;;;;;;2.15;100.00;96324.09;6248110;28;20327;-53
2023/12/13 06:55:09;;;;;;;23.20;14.97;;;;;;;2.24;100.00;96328.03;6246767;28;20201;-55
2023/12/13 06:58:11;;;;;;;21.90;16.17;;;;;;;2.13;100.00;96319.09;6238309;28;20206;-55
2023/12/13 07:01:13;;;;;;;21.90;14.17;;;;;;;2.07;100.00;96314.72;6219424;28;20196;-55
2023/12/13 07:04:16;;;;;;;18.23;13.53;;;;;;;2.32;100.00;96327.75;6256538;28;20230;-56
2023/12/13 07:07:18;;;;;;;21.50;14.07;;;;;;;2.39;100.00;96323.19;6254420;28;20934;-58
2023/12/13 07:10:21;;;;;;;18.23;12.07;;;;;;;2.41;100.00;96323.75;6256135;28;20205;-57
2023/12/13 07:13:23;;;;;;;14.90;9.73;;;;;;;1.81;100.00;96229.97;6256903;28;20201;-57
2023/12/13 07:16:26;;;;;;;13.83;9.90;;;;;;;2.37;100.00;96324.44;6259277;28;20241;-56
2023/12/13 07:19:28;;;;;;;14.53;9.50;;;;;;;2.46;100.00;96321.25;6261569;28;20722;-55
2023/12/13 07:22:30;;;;;;;12.00;8.77;;;;;;;2.48;100.00;96308.69;6263672;28;20191;-53
2023/12/13 07:25:41;;;;;;;11.70;8.83;;;;;;;2.67;100.00;96324.41;6264782;28;20210;-57
2023/12/13 07:28:50;;;;;;;13.83;8.67;;;;;;;2.77;100.00;96324.66;6254613;28;20239;-55
2023/12/13 07:31:53;;;;;;;12.43;7.37;;;;;;;2.78;100.00;96318.38;6262976;28;20330;-55
2023/12/13 07:34:55;;;;;;;12.23;7.03;;;;;;;2.87;100.00;96324.13;6251397;28;20253;-55
2023/12/13 07:37:57;;;;;;;10.07;6.70;;;;;;;2.98;100.00;96318.06;6258123;28;20277;-56
2023/12/13 07:41:08;;;;;;;11.50;6.47;;;;;;;3.14;100.00;96324.47;6255922;28;20330;-57
2023/12/13 07:44:16;;;;;;;5.37;3.43;;;;;;;3.31;100.00;96317.53;6255247;28;20199;-53
2023/12/13 07:47:19;;;;;;;4.27;3.30;;;;;;;3.33;100.00;96328.63;6228506;28;20300;-56
2023/12/13 07:50:21;;;;;;;5.60;3.07;;;;;;;3.38;100.00;96327.94;6257050;28;20203;-52
2023/12/13 07:53:23;;;;;;;3.90;2.70;;;;;;;3.51;100.00;96322.44;6256116;28;20257;-53
2023/12/13 07:56:26;;;;;;;4.13;2.30;;;;;;;3.60;100.00;96334.22;6259269;28;20678;-54
2023/12/13 07:59:31;;;;;;;2.00;1.80;;;;;;;3.72;100.00;96334.19;6260337;28;20224;-55
2023/12/13 08:02:33;;;;;;;3.77;2.20;;;;;;;3.97;100.00;96336.56;6251957;28;20202;-56
2023/12/13 08:05:44;;;;;;;16.37;3.40;;;;;;;4.04;100.00;96339.84;6260612;28;20211;-56
2023/12/13 08:08:47;;;;;;;19.60;2.83;;;;;;;4.06;100.00;96340.44;6251741;28;20286;-53
2023/12/13 08:11:49;;;;;;;10.97;2.37;;;;;;;4.10;100.00;96345.00;6247179;28;20188;-57
2023/12/13 08:14:52;;;;;;;8.20;2.00;;;;;;;4.17;100.00;96336.97;6255059;28;20722;-56
2023/12/13 08:17:54;;;;;;;2.23;1.50;;;;;;;4.22;100.00;96334.41;6253541;28;20197;-56
2023/12/13 08:20:56;;;;;;;1.47;1.37;;;;;;;4.25;100.00;96348.97;6251045;28;20192;-55
2023/12/13 08:23:58;;;;;;;2.23;1.40;;;;;;;4.31;100.00;96340.94;6254100;28;20823;-55
2023/12/13 08:27:00;;;;;;;1.50;1.40;;;;;;;4.35;100.00;96339.44;6252631;28;20215;-55
2023/12/13 08:30:03;;;;;;;1.20;1.10;;;;;;;4.43;100.00;96327.69;6248922;28;20286;-56
2023/12/13 08:33:05;;;;;;;1.40;1.17;;;;;;;4.52;100.00;96334.19;6251019;28;20242;-55
2023/12/13 08:36:11;;;;;;;1.40;1.03;;;;;;;4.57;100.00;96334.28;6253824;28;20207;-53
2023/12/13 08:39:13;;;;;;;2.73;1.20;;;;;;;4.61;100.00;96329.34;6252956;28;20660;-56
2023/12/13 08:42:16;;;;;;;14.47;2.77;;;;;;;4.72;100.00;96332.94;6251192;28;20203;-55
2023/12/13 08:45:18;;;;;;;4.80;1.57;;;;;;;4.81;100.00;96337.59;6248633;28;20246;-56
2023/12/13 08:48:20;;;;;;;1.27;1.10;;;;;;;4.88;100.00;96338.28;6249136;28;20856;-57
2023/12/13 08:51:23;;;;;;;1.10;1.00;;;;;;;4.92;100.00;96344.66;6251509;28;20193;-55
2023/12/13 08:54:27;;;;;;;1.07;0.90;;;;;;;5.20;100.00;96356.19;6248392;28;20196;-56
2023/12/13 08:57:29;;;;;;;1.83;1.27;;;;;;;5.29;100.00;96349.47;6247518;28;20686;-54
2023/12/13 09:00:32;;;;;;;1.30;1.00;;;;;;;5.33;100.00;96345.31;6247780;28;20723;-56
2023/12/13 09:03:34;;;;;;;2.57;1.07;;;;;;;5.36;100.00;96346.66;6248919;28;20219;-57
2023/12/13 09:06:37;;;;;;;1.00;1.00;;;;;;;5.47;100.00;96345.78;6257522;28;20621;-55
2023/12/13 09:09:39;;;;;;;17.30;2.30;;;;;;;5.50;100.00;96332.09;6254938;28;20207;-56
2023/12/13 09:12:41;;;;;;;1.20;1.00;;;;;;;5.66;100.00;96331.28;6256480;28;20729;-55
2023/12/13 09:15:43;;;;;;;0.87;0.87;;;;;;;5.89;100.00;96324.94;6257740;28;20195;-55
2023/12/13 09:18:46;;;;;;;1.73;1.00;;;;;;;6.05;100.00;96318.03;6257524;28;20585;-56
2023/12/13 09:21:48;;;;;;;1.97;0.80;;;;;;;6.09;100.00;96319.16;6256182;28;20195;-56
2023/12/13 09:24:50;;;;;;;0.83;0.70;;;;;;;6.04;100.00;96327.00;6258715;28;20202;-52
2023/12/13 09:27:52;;;;;;;0.97;0.70;;;;;;;6.12;100.00;96323.16;6257989;28;20239;-55
2023/12/13 09:30:54;;;;;;;1.00;0.77;;;;;;;6.11;100.00;96322.34;6258022;28;20270;-55
2023/12/13 09:33:57;;;;;;;1.10;1.00;;;;;;;6.14;100.00;96318.41;6240810;28;20254;-52
2023/12/13 09:36:59;;;;;;;1.03;0.80;;;;;;;6.18;100.00;96316.88;6255437;28;20556;-55
2023/12/13 09:40:02;;;;;;;6.37;1.17;;;;;;;6.20;100.00;96317.41;6253533;28;20272;-56
2023/12/13 09:43:04;;;;;;;0.60;0.60;;;;;;;6.26;100.00;96307.72;6251066;28;20234;-54
2023/12/13 09:46:12;;;;;;;0.87;0.80;;;;;;;6.26;100.00;96297.94;6252782;28;20661;-55
2023/12/13 09:49:14;;;;;;;2.33;0.70;;;;;;;6.39;100.00;96297.53;6253934;28;20356;-53
2023/12/13 09:52:35;;;;;;;0.70;0.63;;;;;;;6.40;100.00;96293.84;6254891;28;20238;-52
2023/12/13 09:55:38;;;;;;;0.67;0.50;;;;;;;6.44;100.00;96287.00;6256564;28;20213;-56
2023/12/13 09:58:40;;;;;;;0.80;0.80;;;;;;;5.95;100.00;96201.63;6255214;28;20899;-56
2023/12/13 10:01:42;;;;;;;0.70;0.60;;;;;;;6.50;100.00;96271.16;6236655;28;20195;-54
2023/12/13 10:04:44;;;;;;;2.47;0.70;;;;;;;6.61;100.00;96284.28;6252358;28;20235;-53
2023/12/13 10:07:48;;;;;;;0.60;0.50;;;;;;;6.72;100.00;96287.81;6255086;28;20211;-56
2023/12/13 10:10:50;;;;;;;0.50;0.50;;;;;;;6.71;100.00;96284.34;6241614;28;20238;-56
2023/12/13 10:13:52;;;;;;;0.97;0.60;;;;;;;6.77;100.00;96279.09;6253001;28;20726;-53
2023/12/13 10:16:54;;;;;;;0.80;0.60;;;;;;;6.82;100.00;96272.00;6254901;28;20700;-54
2023/12/13 10:20:12;;;;;;;0.90;0.67;;;;;;;6.66;100.00;96263.13;6251817;28;20587;-55
2023/12/13 10:23:16;;;;;;;0.60;0.50;;;;;;;6.72;100.00;96259.47;6255014;28;20199;-55
2023/12/13 10:26:19;;;;;;;0.63;0.60;;;;;;;6.79;100.00;96259.25;6255032;28;20265;-56
2023/12/13 10:29:21;;;;;;;0.97;0.50;;;;;;;6.79;100.00;96266.41;6257582;28;20208;-56
2023/12/13 10:32:23;;;;;;;0.43;0.40;;;;;;;6.92;100.00;96261.50;6253542;28;20612;-53
2023/12/13 10:35:25;;;;;;;0.37;0.30;;;;;;;6.84;100.00;96246.06;6245911;28;20203;-55
2023/12/13 10:38:30;;;;;;;0.93;0.40;;;;;;;6.82;100.00;96240.25;6255806;28;20597;-55
2023/12/13 10:41:33;;;;;;;0.53;0.30;;;;;;;6.88;100.00;96251.66;6253035;28;20234;-54
2023/12/13 10:44:36;;;;;;;1.03;0.50;;;;;;;7.01;100.00;96242.50;6255409;28;20555;-55
2023/12/13 10:47:45;;;;;;;0.60;0.40;;;;;;;7.25;100.00;96233.13;6250085;28;20212;-55
2023/12/13 10:50:49;;;;;;;1.30;0.50;;;;;;;7.25;100.00;96243.72;6250853;28;20206;-52
2023/12/13 10:53:51;;;;;;;1.30;0.70;;;;;;;7.34;100.00;96244.03;6246413;28;20203;-55
2023/12/13 10:56:55;;;;;;;1.60;0.50;;;;;;;7.17;100.00;96231.75;6253817;28;20234;-53
2023/12/13 10:59:58;;;;;;;0.50;0.50;;;;;;;7.23;100.00;96227.28;6249918;28;20197;-53
2023/12/13 11:03:12;;;;;;;0.73;0.50;;;;;;;7.56;100.00;96241.25;6248611;28;20203;-55
2023/12/13 11:06:16;;;;;;;0.73;0.70;;;;;;;7.43;100.00;96227.38;6256287;28;20210;-56
2023/12/13 11:09:20;;;;;;;1.07;0.60;;;;;;;7.38;100.00;96245.91;6247307;28;20204;-55
2023/12/13 11:12:24;;;;;;;0.40;0.33;;;;;;;7.29;100.00;96258.06;6245780;28;20246;-55
2023/12/13 11:15:27;;;;;;;0.60;0.50;;;;;;;7.20;100.00;96247.13;6245266;28;20199;-56
2023/12/13 11:18:30;;;;;;;1.43;0.80;;;;;;;7.16;100.00;96253.19;6259079;28;20809;-52
2023/12/13 11:21:34;;;;;;;0.43;0.43;;;;;;;7.16;100.00;96250.56;6261451;28;20210;-54
2023/12/13 11:24:39;;;;;;;0.33;0.30;;;;;;;6.90;100.00;96200.06;6253215;28;20217;-54
2023/12/13 11:27:51;;;;;;;1.87;0.40;;;;;;;7.17;100.00;96255.59;6264654;28;20784;-55
2023/12/13 11:30:57;;;;;;;1.33;0.40;;;;;;;7.13;100.00;96254.50;6257815;28;20193;-55
2023/12/13 11:33:59;;;;;;;1.80;0.50;;;;;;;7.06;100.00;96253.94;6246316;28;20240;-55
2023/12/13 11:37:09;;;;;;;0.40;0.40;;;;;;;7.15;100.00;96254.25;6250628;28;20197;-53
2023/12/13 11:40:14;;;;;;;0.67;0.37;;;;;;;7.32;100.00;96254.09;6256514;28;20192;-56
2023/12/13 11:43:16;;;;;;;3.00;0.30;;;;;;;7.53;100.00;96247.03;6253015;28;20526;-55
2023/12/13 11:46:19;;;;;;;1.07;0.40;;;;;;;7.67;100.00;96237.56;6253559;28;20206;-55
2023/12/13 11:49:22;;;;;;;1.57;0.50;;;;;;;7.67;100.00;96240.22;6256228;28;20670;-54
2023/12/13 11:52:25;;;;;;;0.20;0.20;;;;;;;7.60;100.00;96240.47;6255003;28;20187;-55
2023/12/13 11:55:28;;;;;;;1.00;0.40;;;;;;;7.57;100.00;96245.47;6256630;28;20655;-50
2023/12/13 11:58:30;;;;;;;0.77;0.50;;;;;;;7.39;100.00;96221.03;6244324;28;20564;-55
2023/12/13 12:01:32;;;;;;;0.37;0.30;;;;;;;7.49;100.00;96244.94;6257413;28;20599;-55
2023/12/13 12:04:36;;;;;;;0.83;0.50;;;;;;;7.61;100.00;96242.06;6259761;28;20202;-56
2023/12/13 12:07:38;;;;;;;0.70;0.40;;;;;;;7.69;100.00;96251.38;6258631;28;20211;-55
2023/12/13 12:10:42;;;;;;;1.57;0.60;;;;;;;7.67;100.00;96246.31;6252896;28;20205;-56
2023/12/13 12:13:45;;;;;;;0.60;0.33;;;;;;;7.63;100.00;96242.59;6255068;28;20287;-55
2023/12/13 12:16:47;;;;;;;2.40;0.63;;;;;;;7.67;100.00;96242.88;6249388;28;20196;-54
2023/12/13 12:19:51;;;;;;;3.43;0.40;;;;;;;7.78;100.00;96244.50;6250909;28;20652;-55
2023/12/13 12:22:53;;;;;;;1.40;0.47;;;;;;;7.79;100.00;96232.88;6251961;28;20195;-53
2023/12/13 12:25:56;;;;;;;0.60;0.40;;;;;;;7.95;100.00;96233.72;6252334;28;20199;-56
2023/12/13 12:28:58;;;;;;;1.23;0.70;;;;;;;7.79;100.00;96227.56;6247976;28;20723;-53
2023/12/13 12:32:00;;;;;;;0.77;0.43;;;;;;;7.73;100.00;96226.75;6250807;28;20272;-54
2023/12/13 12:35:05;;;;;;;2.53;0.33;;;;;;;7.68;100.00;96223.25;6250871;28;20277;-56
2023/12/13 12:38:08;;;;;;;0.63;0.50;;;;;;;7.68;100.00;96210.81;6251088;28;20195;-57
2023/12/13 12:41:10;;;;;;;0.67;0.43;;;;;;;7.69;100.00;96206.31;6250297;28;20195;-55
2023/12/13 12:44:13;;;;;;;0.77;0.50;;;;;;;7.65;100.00;96207.91;6249096;28;20675;-53
2023/12/13 12:47:15;;;;;;;0.40;0.30;;;;;;;7.71;100.00;96199.69;6250376;28;20180;-55
2023/12/13 12:50:17;;;;;;;0.73;0.40;;;;;;;7.71;100.00;96202.34;6250896;28;20228;-54
2023/12/13 12:53:20;;;;;;;1.13;0.40;;;;;;;7.65;100.00;96202.59;6242699;28;20192;-57
2023/12/13 12:56:22;;;;;;;1.57;0.43;;;;;;;7.56;100.00;96202.28;6249895;28;20195;-56
2023/12/13 12:59:24;;;;;;;1.27;0.40;;;;;;;7.47;100.00;96201.97;6248492;28;20195;-54
2023/12/13 13:02:27;;;;;;;0.97;0.47;;;;;;;7.41;100.00;96204.88;6248241;28;20201;-55
2023/12/13 13:05:29;;;;;;;1.80;0.50;;;;;;;7.31;100.00;96196.88;6249492;28;20667;-57
2023/12/13 13:08:32;;;;;;;1.47;0.40;;;;;;;7.14;100.00;96184.63;6255884;28;20216;-56
2023/12/13 13:11:35;;;;;;;0.67;0.33;;;;;;;7.22;100.00;96207.94;6254732;28;20195;-54
2023/12/13 13:14:39;;;;;;;2.33;0.63;;;;;;;7.18;100.00;96214.78;6246724;28;20348;-57
2023/12/13 13:17:41;;;;;;;2.43;0.53;;;;;;;7.13;100.00;96219.28;6250217;28;20723;-53
2023/12/13 13:20:43;;;;;;;1.07;0.50;;;;;;;6.95;100.00;96204.63;6248999;28;20707;-56
2023/12/13 13:23:45;;;;;;;1.97;0.60;;;;;;;7.04;100.00;96223.44;6247169;28;20202;-56
2023/12/13 13:26:47;;;;;;;1.93;0.30;;;;;;;7.06;100.00;96226.66;6255448;28;20199;-54
2023/12/13 13:29:49;;;;;;;1.13;0.47;;;;;;;7.11;100.00;96232.78;6255734;28;20213;-56
2023/12/13 13:32:53;;;;;;;1.70;0.60;;;;;;;7.12;100.00;96239.66;6244119;28;20236;-56
2023/12/13 13:35:55;;;;;;;0.40;0.30;;;;;;;7.09;100.00;96247.31;6249511;28;20217;-56
2023/12/13 13:38:57;;;;;;;0.70;0.40;;;;;;;7.01;100.00;96240.66;6250952;28;20194;-55
2023/12/13 13:41:59;;;;;;;0.73;0.33;;;;;;;6.96;100.00;96238.75;6250971;28;20195;-54
2023/12/13 13:45:03;;;;;;;0.20;0.20;;;;;;;6.94;100.00;96248.78;6252290;28;20646;-54
2023/12/13 13:48:05;;;;;;;1.00;0.60;;;;;;;6.89;100.00;96242.66;6237651;28;20211;-54
2023/12/13 13:51:07;;;;;;;2.13;0.30;;;;;;;6.89;100.00;96250.59;6262306;28;20205;-56
2023/12/13 13:54:10;;;;;;;0.50;0.47;;;;;;;6.88;100.00;96244.53;6263467;28;20195;-55
2023/12/13 13:57:12;;;;;;;0.60;0.30;;;;;;;6.84;100.00;96256.66;6264745;28;20202;-55
2023/12/13 14:00:19;;;;;;;3.80;0.70;;;;;;;6.77;100.00;96255.28;6263384;28;20623;-54
2023/12/13 14:03:21;;;;;;;2.20;0.50;;;;;;;6.62;100.00;96264.69;6265219;28;20194;-56
2023/12/13 14:06:23;;;;;;;0.70;0.30;;;;;;;6.50;100.00;96255.31;6256358;28;20195;-53
2023/12/13 14:09:25;;;;;;;0.60;0.40;;;;;;;6.30;100.00;96246.13;6253335;28;20699;-54
2023/12/13 14:12:28;;;;;;;0.50;0.47;;;;;;;6.15;100.00;96244.13;6254862;28;20193;-56
2023/12/13 14:15:30;;;;;;;1.17;0.70;;;;;;;6.03;100.00;96242.69;6262156;28;20199;-56